createdAt,value
2017-08-29T10:42:41.920Z,52.90
2017-08-29T10:50:40.649Z,52.10
2017-08-29T11:00:55.436Z,50.90
2017-08-29T11:03:33.112Z,51.20
2017-08-29T11:06:02.340Z,51.40
2017-08-29T11:11:18.631Z,49.30
2017-08-29T11:16:43.623Z,49.70
2017-08-29T11:19:33.915Z,48.70
2017-08-29T11:22:08.892Z,48.90
2017-08-29T11:24:40.143Z,49.30
2017-08-29T11:30:09.468Z,50.50
2017-08-29T11:32:41.346Z,50.50
2017-08-29T12:08:33.748Z,50.00
2017-08-29T12:19:55.882Z,49.10
2017-08-29T12:22:54.904Z,48.50
2017-08-29T12:25:43.678Z,47.90
2017-08-29T13:31:04.037Z,46.10
2017-08-29T13:36:55.194Z,45.30
2017-08-29T13:42:26.909Z,44.30
2017-08-29T13:44:56.268Z,45.10
2017-08-29T13:47:44.840Z,45.00
2017-08-29T13:52:58.641Z,44.10
2017-08-29T13:58:40.977Z,46.00
2017-08-29T14:01:14.368Z,43.90
2017-08-29T14:03:44.436Z,43.50
2017-08-29T14:06:13.217Z,44.70
2017-08-29T14:08:39.996Z,45.90
2017-08-29T14:11:08.711Z,46.10
2017-08-29T14:18:42.878Z,45.60
2017-08-29T14:21:11.691Z,47.10
2017-08-29T14:23:38.815Z,47.10
2017-08-29T14:26:06.152Z,46.10
2017-08-29T14:28:35.965Z,45.90
2017-08-29T14:31:02.751Z,46.70
2017-08-29T14:33:29.884Z,46.60
2017-08-29T14:35:58.477Z,45.60
2017-08-29T14:38:25.979Z,48.10
2017-08-29T14:40:52.807Z,46.50
2017-08-29T14:43:20.639Z,48.70
2017-08-29T14:45:48.860Z,44.60
2017-08-29T14:48:27.747Z,48.30
2017-08-29T14:53:33.279Z,46.80
2017-08-29T14:56:00.339Z,45.80
2017-08-29T15:06:16.211Z,45.80
2017-08-29T15:08:43.107Z,46.70
2017-08-29T15:11:10.835Z,48.80
2017-08-29T15:13:41.026Z,47.30
2017-08-29T15:16:11.318Z,46.40
2017-08-29T15:18:39.424Z,46.50
2017-08-29T15:21:07.095Z,47.70
2017-08-29T15:23:34.767Z,47.10
2017-08-29T15:28:39.563Z,49.60
2017-08-29T15:31:11.708Z,50.40
2017-08-29T15:33:39.880Z,49.60
2017-08-29T15:36:08.554Z,47.50
2017-08-29T15:38:43.051Z,47.70
2017-08-29T15:41:11.333Z,48.60
2017-08-29T15:43:39.111Z,50.00
2017-08-29T15:46:10.433Z,48.50
2017-08-29T15:48:39.313Z,47.80
2017-08-29T15:51:08.659Z,48.80
2017-08-29T15:53:35.887Z,49.10
2017-08-29T15:56:03.551Z,50.00
2017-08-29T15:58:31.550Z,50.40
2017-08-29T16:01:00.586Z,50.10
2017-08-29T16:03:29.751Z,52.20
2017-08-29T16:06:00.389Z,50.20
2017-08-29T16:08:39.750Z,50.90
2017-08-29T16:11:06.972Z,51.20
2017-08-29T16:16:13.544Z,51.00
2017-08-29T16:18:42.159Z,49.90
2017-08-29T16:23:51.004Z,48.00
2017-08-29T16:28:56.335Z,50.70
2017-08-29T16:31:30.456Z,50.10
2017-08-29T16:34:01.288Z,51.20
2017-08-29T16:36:29.381Z,51.60
2017-08-29T16:38:57.551Z,51.70
2017-08-29T16:41:28.140Z,50.90
2017-08-29T16:43:58.662Z,50.80
2017-08-29T16:46:30.004Z,51.10
2017-08-29T16:48:58.022Z,51.80
2017-08-29T16:51:26.169Z,51.90
2017-08-29T16:54:06.035Z,50.70
2017-08-29T16:56:39.172Z,49.80
2017-08-29T16:59:14.576Z,52.30
2017-08-29T17:01:46.315Z,53.10
2017-08-29T17:04:19.832Z,53.20
2017-08-29T17:06:49.011Z,54.90
2017-08-29T17:09:18.195Z,54.60
2017-08-29T17:11:50.336Z,54.80
2017-08-29T17:17:00.148Z,55.00
2017-08-29T17:19:33.052Z,56.50
2017-08-29T17:22:04.743Z,57.30
2017-08-29T17:24:39.940Z,57.70
2017-08-29T17:27:09.066Z,58.40
2017-08-29T17:32:18.683Z,59.30
2017-08-29T17:34:50.533Z,60.40
2017-08-29T17:37:26.309Z,60.30
2017-08-29T17:42:27.630Z,59.80
2017-08-29T17:44:59.525Z,58.70
2017-08-29T17:47:34.136Z,59.30
2017-08-29T17:50:05.043Z,60.30
2017-08-29T17:52:38.292Z,61.40
2017-08-29T17:55:07.936Z,62.10
2017-08-29T17:57:38.624Z,62.50
2017-08-29T18:00:15.772Z,62.90
2017-08-29T18:02:45.062Z,63.00
2017-08-29T18:05:17.789Z,63.70
2017-08-29T18:07:52.595Z,64.40
2017-08-29T18:10:24.739Z,65.00
2017-08-29T18:15:28.268Z,65.80
2017-08-29T18:17:56.895Z,66.30
2017-08-29T18:20:24.592Z,64.50
2017-08-29T18:22:53.316Z,65.30
2017-08-29T18:25:21.817Z,66.30
2017-08-29T18:27:48.668Z,66.60
2017-08-29T18:30:16.555Z,66.30
2017-08-29T18:32:43.527Z,67.10
2017-08-29T18:35:12.014Z,67.60
2017-08-29T18:37:39.243Z,65.90
2017-08-29T18:40:07.020Z,66.00
2017-08-29T18:45:43.685Z,65.80
2017-08-29T18:48:13.033Z,66.50
2017-08-29T18:50:48.402Z,65.80
2017-08-29T18:56:01.477Z,65.60
2017-08-29T19:18:19.006Z,64.80
2017-08-29T19:20:45.902Z,66.20
2017-08-29T19:23:12.767Z,66.20
2017-08-29T19:25:39.704Z,67.30
2017-08-29T19:28:06.540Z,67.40
2017-08-29T19:30:33.425Z,66.90
2017-08-29T19:33:00.303Z,67.00
2017-08-29T19:35:27.132Z,68.20
2017-08-29T19:37:54.020Z,67.30
2017-08-29T19:40:20.971Z,67.30
2017-08-29T19:42:47.896Z,67.00
2017-08-29T19:45:14.870Z,68.10
2017-08-29T19:47:44.872Z,68.50
2017-08-29T19:52:44.817Z,69.40
2017-08-29T19:55:11.732Z,70.60
2017-08-29T19:57:38.688Z,70.20
2017-08-29T20:00:06.184Z,70.70
2017-08-29T20:02:33.179Z,71.30
2017-08-29T20:05:00.128Z,71.40
2017-08-29T20:07:27.240Z,72.40
2017-08-29T20:09:54.368Z,71.90
2017-08-29T20:12:22.366Z,72.40
2017-08-29T20:14:49.336Z,72.60
2017-08-29T20:17:16.287Z,71.60
2017-08-29T20:19:43.271Z,72.00
2017-08-29T20:24:53.930Z,71.40
2017-08-29T20:27:21.043Z,71.80
2017-08-29T20:29:47.989Z,71.20
2017-08-29T20:32:15.411Z,70.90
2017-08-29T20:34:42.344Z,71.90
2017-08-29T20:37:11.040Z,72.50
2017-08-29T20:39:41.152Z,71.90
2017-08-29T20:42:10.977Z,72.80
2017-08-29T20:52:17.735Z,72.70
2017-08-29T20:54:56.108Z,73.00
2017-08-29T20:57:23.164Z,70.60
2017-08-29T20:59:50.151Z,71.70
2017-08-29T22:48:00.880Z,75.50
